sensor_id;sensor_type;location;lat;lon;timestamp;P1;durP1;ratioP1;P2;durP2;ratioP2
9485;SDS011;4781;48.776;9.200;2024-02-26T00:00:03;2.05;;;1.15;;
9485;SDS011;4781;48.776;9.200;2024-02-26T00:02:35;2.10;;;0.90;;
9485;SDS011;4781;48.776;9.200;2024-02-26T00:05:07;1.90;;;1.00;;
9485;SDS011;4781;48.776;9.200;2024-02-26T00:07:35;3.55;;;1.50;;
9485;SDS011;4781;48.776;9.200;2024-02-26T00:10:05;2.42;;;0.95;;
9485;SDS011;4781;48.776;9.200;2024-02-26T00:12:34;2.25;;;1.15;;
9485;SDS011;4781;48.776;9.200;2024-02-26T00:15:03;2.00;;;1.00;;
9485;SDS011;4781;48.776;9.200;2024-02-26T00:17:34;4.30;;;1.72;;
9485;SDS011;4781;48.776;9.200;2024-02-26T00:20:03;2.15;;;0.95;;
9485;SDS011;4781;48.776;9.200;2024-02-26T00:22:34;1.87;;;0.88;;
9485;SDS011;4781;48.776;9.200;2024-02-26T00:25:03;1.62;;;0.90;;
9485;SDS011;4781;48.776;9.200;2024-02-26T00:27:32;2.25;;;1.25;;
9485;SDS011;4781;48.776;9.200;2024-02-26T00:30:01;2.02;;;0.98;;
9485;SDS011;4781;48.776;9.200;2024-02-26T00:32:29;1.47;;;0.90;;
9485;SDS011;4781;48.776;9.200;2024-02-26T00:34:58;1.30;;;0.72;;
9485;SDS011;4781;48.776;9.200;2024-02-26T00:37:26;2.95;;;1.15;;
9485;SDS011;4781;48.776;9.200;2024-02-26T00:39:55;1.52;;;1.00;;
9485;SDS011;4781;48.776;9.200;2024-02-26T00:42:23;1.07;;;0.70;;
9485;SDS011;4781;48.776;9.200;2024-02-26T00:44:51;4.70;;;1.30;;
9485;SDS011;4781;48.776;9.200;2024-02-26T00:47:20;1.52;;;0.90;;
9485;SDS011;4781;48.776;9.200;2024-02-26T00:49:48;1.85;;;1.07;;
9485;SDS011;4781;48.776;9.200;2024-02-26T00:52:17;3.90;;;1.40;;
9485;SDS011;4781;48.776;9.200;2024-02-26T00:54:45;4.12;;;1.22;;
9485;SDS011;4781;48.776;9.200;2024-02-26T00:57:14;1.85;;;1.00;;
9485;SDS011;4781;48.776;9.200;2024-02-26T00:59:42;1.70;;;0.90;;
9485;SDS011;4781;48.776;9.200;2024-02-26T01:02:10;1.85;;;0.85;;
9485;SDS011;4781;48.776;9.200;2024-02-26T01:04:39;2.05;;;1.12;;
9485;SDS011;4781;48.776;9.200;2024-02-26T01:07:09;1.55;;;0.72;;
9485;SDS011;4781;48.776;9.200;2024-02-26T01:09:37;2.85;;;0.93;;
9485;SDS011;4781;48.776;9.200;2024-02-26T01:12:06;1.75;;;0.90;;
9485;SDS011;4781;48.776;9.200;2024-02-26T01:14:34;1.82;;;1.00;;
9485;SDS011;4781;48.776;9.200;2024-02-26T01:17:02;3.35;;;1.12;;
9485;SDS011;4781;48.776;9.200;2024-02-26T01:19:31;2.70;;;1.12;;
9485;SDS011;4781;48.776;9.200;2024-02-26T01:21:59;2.08;;;1.10;;
9485;SDS011;4781;48.776;9.200;2024-02-26T01:24:29;1.80;;;0.95;;
9485;SDS011;4781;48.776;9.200;2024-02-26T01:26:57;1.85;;;0.80;;
9485;SDS011;4781;48.776;9.200;2024-02-26T01:29:25;1.87;;;1.00;;
9485;SDS011;4781;48.776;9.200;2024-02-26T01:31:54;1.57;;;0.90;;
9485;SDS011;4781;48.776;9.200;2024-02-26T01:34:22;3.05;;;1.10;;
9485;SDS011;4781;48.776;9.200;2024-02-26T01:36:50;2.15;;;1.10;;
9485;SDS011;4781;48.776;9.200;2024-02-26T01:39:19;1.87;;;1.02;;
9485;SDS011;4781;48.776;9.200;2024-02-26T01:41:48;1.25;;;0.70;;
9485;SDS011;4781;48.776;9.200;2024-02-26T01:44:16;2.47;;;0.90;;
9485;SDS011;4781;48.776;9.200;2024-02-26T01:46:45;2.52;;;1.20;;
9485;SDS011;4781;48.776;9.200;2024-02-26T01:49:13;1.37;;;1.00;;
9485;SDS011;4781;48.776;9.200;2024-02-26T01:51:43;2.40;;;1.10;;
9485;SDS011;4781;48.776;9.200;2024-02-26T01:54:12;1.92;;;1.10;;
9485;SDS011;4781;48.776;9.200;2024-02-26T01:56:40;1.40;;;0.90;;
9485;SDS011;4781;48.776;9.200;2024-02-26T01:59:09;2.58;;;1.20;;
9485;SDS011;4781;48.776;9.200;2024-02-26T02:01:38;1.85;;;1.02;;
9485;SDS011;4781;48.776;9.200;2024-02-26T02:04:17;1.50;;;0.98;;
9485;SDS011;4781;48.776;9.200;2024-02-26T02:06:45;1.40;;;0.82;;
9485;SDS011;4781;48.776;9.200;2024-02-26T02:09:14;2.10;;;1.00;;
9485;SDS011;4781;48.776;9.200;2024-02-26T02:11:43;1.70;;;0.90;;
9485;SDS011;4781;48.776;9.200;2024-02-26T02:14:12;2.12;;;1.05;;
9485;SDS011;4781;48.776;9.200;2024-02-26T02:16:43;7.30;;;1.30;;
9485;SDS011;4781;48.776;9.200;2024-02-26T02:19:11;1.60;;;1.10;;
9485;SDS011;4781;48.776;9.200;2024-02-26T02:21:40;1.50;;;0.80;;
9485;SDS011;4781;48.776;9.200;2024-02-26T02:24:08;2.20;;;1.02;;
9485;SDS011;4781;48.776;9.200;2024-02-26T02:26:36;2.37;;;1.40;;
9485;SDS011;4781;48.776;9.200;2024-02-26T02:29:05;2.95;;;1.27;;
9485;SDS011;4781;48.776;9.200;2024-02-26T02:31:35;2.05;;;0.90;;
9485;SDS011;4781;48.776;9.200;2024-02-26T02:34:03;1.57;;;0.80;;
9485;SDS011;4781;48.776;9.200;2024-02-26T02:36:32;2.12;;;1.00;;
9485;SDS011;4781;48.776;9.200;2024-02-26T02:39:00;1.42;;;0.80;;
9485;SDS011;4781;48.776;9.200;2024-02-26T02:41:29;1.00;;;0.70;;
9485;SDS011;4781;48.776;9.200;2024-02-26T02:43:57;0.62;;;0.57;;
9485;SDS011;4781;48.776;9.200;2024-02-26T02:46:26;1.90;;;1.10;;
9485;SDS011;4781;48.776;9.200;2024-02-26T02:48:54;2.98;;;1.50;;
9485;SDS011;4781;48.776;9.200;2024-02-26T02:51:22;2.92;;;1.30;;
9485;SDS011;4781;48.776;9.200;2024-02-26T02:53:51;4.50;;;1.35;;
9485;SDS011;4781;48.776;9.200;2024-02-26T02:56:19;2.62;;;1.20;;
9485;SDS011;4781;48.776;9.200;2024-02-26T02:58:47;1.90;;;0.93;;
9485;SDS011;4781;48.776;9.200;2024-02-26T03:01:16;1.42;;;0.75;;
9485;SDS011;4781;48.776;9.200;2024-02-26T03:03:44;1.75;;;0.85;;
9485;SDS011;4781;48.776;9.200;2024-02-26T03:06:12;1.75;;;0.90;;
9485;SDS011;4781;48.776;9.200;2024-02-26T03:08:41;1.20;;;0.80;;
9485;SDS011;4781;48.776;9.200;2024-02-26T03:11:14;1.20;;;0.70;;
9485;SDS011;4781;48.776;9.200;2024-02-26T03:13:42;1.65;;;0.68;;
9485;SDS011;4781;48.776;9.200;2024-02-26T03:16:11;1.52;;;0.60;;
9485;SDS011;4781;48.776;9.200;2024-02-26T03:18:39;1.17;;;0.70;;
9485;SDS011;4781;48.776;9.200;2024-02-26T03:21:08;1.07;;;0.70;;
9485;SDS011;4781;48.776;9.200;2024-02-26T03:23:37;2.42;;;0.70;;
9485;SDS011;4781;48.776;9.200;2024-02-26T03:26:05;0.93;;;0.60;;
9485;SDS011;4781;48.776;9.200;2024-02-26T03:28:34;1.42;;;0.60;;
9485;SDS011;4781;48.776;9.200;2024-02-26T03:31:03;0.80;;;0.50;;
9485;SDS011;4781;48.776;9.200;2024-02-26T03:33:31;0.90;;;0.60;;
9485;SDS011;4781;48.776;9.200;2024-02-26T03:35:59;2.00;;;0.78;;
9485;SDS011;4781;48.776;9.200;2024-02-26T03:38:28;1.17;;;0.85;;
9485;SDS011;4781;48.776;9.200;2024-02-26T03:40:57;2.33;;;0.90;;
9485;SDS011;4781;48.776;9.200;2024-02-26T03:43:25;2.85;;;1.47;;
9485;SDS011;4781;48.776;9.200;2024-02-26T03:45:53;3.10;;;1.50;;
9485;SDS011;4781;48.776;9.200;2024-02-26T03:48:22;2.95;;;1.60;;
9485;SDS011;4781;48.776;9.200;2024-02-26T03:50:50;2.60;;;1.37;;
9485;SDS011;4781;48.776;9.200;2024-02-26T03:53:19;5.75;;;2.70;;
9485;SDS011;4781;48.776;9.200;2024-02-26T03:55:47;5.28;;;2.02;;
9485;SDS011;4781;48.776;9.200;2024-02-26T03:58:17;2.85;;;1.32;;
9485;SDS011;4781;48.776;9.200;2024-02-26T04:00:45;2.33;;;1.35;;
9485;SDS011;4781;48.776;9.200;2024-02-26T04:03:14;2.35;;;1.30;;
9485;SDS011;4781;48.776;9.200;2024-02-26T04:05:42;2.92;;;1.37;;
9485;SDS011;4781;48.776;9.200;2024-02-26T04:08:11;2.65;;;1.30;;
9485;SDS011;4781;48.776;9.200;2024-02-26T04:10:39;3.02;;;1.67;;
9485;SDS011;4781;48.776;9.200;2024-02-26T04:13:08;2.62;;;1.50;;
9485;SDS011;4781;48.776;9.200;2024-02-26T04:15:36;4.42;;;1.60;;
9485;SDS011;4781;48.776;9.200;2024-02-26T04:18:04;3.42;;;1.60;;
9485;SDS011;4781;48.776;9.200;2024-02-26T04:20:33;2.65;;;1.35;;
9485;SDS011;4781;48.776;9.200;2024-02-26T04:23:02;3.12;;;1.22;;
9485;SDS011;4781;48.776;9.200;2024-02-26T04:25:31;2.40;;;1.20;;
9485;SDS011;4781;48.776;9.200;2024-02-26T04:27:59;2.92;;;1.10;;
9485;SDS011;4781;48.776;9.200;2024-02-26T04:30:28;2.95;;;1.30;;
9485;SDS011;4781;48.776;9.200;2024-02-26T04:32:56;2.65;;;1.10;;
9485;SDS011;4781;48.776;9.200;2024-02-26T04:35:25;3.83;;;1.30;;
9485;SDS011;4781;48.776;9.200;2024-02-26T04:37:53;1.85;;;1.07;;
9485;SDS011;4781;48.776;9.200;2024-02-26T04:40:22;4.80;;;1.27;;
9485;SDS011;4781;48.776;9.200;2024-02-26T04:42:50;3.00;;;1.10;;
9485;SDS011;4781;48.776;9.200;2024-02-26T04:45:18;2.55;;;1.00;;
9485;SDS011;4781;48.776;9.200;2024-02-26T04:47:47;1.47;;;0.80;;
9485;SDS011;4781;48.776;9.200;2024-02-26T04:50:15;2.87;;;1.05;;
9485;SDS011;4781;48.776;9.200;2024-02-26T04:52:43;1.90;;;1.00;;
9485;SDS011;4781;48.776;9.200;2024-02-26T04:55:12;3.20;;;0.90;;
9485;SDS011;4781;48.776;9.200;2024-02-26T04:57:40;1.82;;;0.80;;
9485;SDS011;4781;48.776;9.200;2024-02-26T05:00:09;1.77;;;1.00;;
9485;SDS011;4781;48.776;9.200;2024-02-26T05:02:39;1.87;;;0.90;;
9485;SDS011;4781;48.776;9.200;2024-02-26T05:05:07;2.77;;;1.00;;
9485;SDS011;4781;48.776;9.200;2024-02-26T05:07:41;2.55;;;1.07;;
9485;SDS011;4781;48.776;9.200;2024-02-26T05:10:11;2.60;;;1.00;;
9485;SDS011;4781;48.776;9.200;2024-02-26T05:12:39;2.15;;;1.00;;
9485;SDS011;4781;48.776;9.200;2024-02-26T05:15:09;2.60;;;1.20;;
9485;SDS011;4781;48.776;9.200;2024-02-26T05:17:39;2.50;;;1.10;;
9485;SDS011;4781;48.776;9.200;2024-02-26T05:20:07;1.95;;;1.10;;
9485;SDS011;4781;48.776;9.200;2024-02-26T05:22:36;3.75;;;1.30;;
9485;SDS011;4781;48.776;9.200;2024-02-26T05:25:05;3.00;;;1.20;;
9485;SDS011;4781;48.776;9.200;2024-02-26T05:27:33;2.40;;;1.00;;
9485;SDS011;4781;48.776;9.200;2024-02-26T05:30:02;2.37;;;1.10;;
9485;SDS011;4781;48.776;9.200;2024-02-26T05:32:31;1.70;;;1.00;;
9485;SDS011;4781;48.776;9.200;2024-02-26T05:34:59;2.40;;;1.37;;
9485;SDS011;4781;48.776;9.200;2024-02-26T05:37:29;2.85;;;1.20;;
9485;SDS011;4781;48.776;9.200;2024-02-26T05:39:58;1.92;;;1.20;;
9485;SDS011;4781;48.776;9.200;2024-02-26T05:42:28;2.90;;;1.37;;
9485;SDS011;4781;48.776;9.200;2024-02-26T05:44:57;2.47;;;1.07;;
9485;SDS011;4781;48.776;9.200;2024-02-26T05:47:27;2.62;;;1.20;;
9485;SDS011;4781;48.776;9.200;2024-02-26T05:49:55;2.00;;;1.10;;
9485;SDS011;4781;48.776;9.200;2024-02-26T05:52:25;3.17;;;1.20;;
9485;SDS011;4781;48.776;9.200;2024-02-26T05:54:55;1.80;;;1.12;;
9485;SDS011;4781;48.776;9.200;2024-02-26T05:57:24;3.87;;;1.80;;
9485;SDS011;4781;48.776;9.200;2024-02-26T05:59:52;1.95;;;1.20;;
9485;SDS011;4781;48.776;9.200;2024-02-26T06:02:20;2.70;;;1.50;;
9485;SDS011;4781;48.776;9.200;2024-02-26T06:04:49;2.92;;;1.50;;
9485;SDS011;4781;48.776;9.200;2024-02-26T06:07:17;1.90;;;1.07;;
9485;SDS011;4781;48.776;9.200;2024-02-26T06:09:46;2.40;;;1.05;;
9485;SDS011;4781;48.776;9.200;2024-02-26T06:12:14;2.10;;;1.00;;
9485;SDS011;4781;48.776;9.200;2024-02-26T06:14:42;3.17;;;1.30;;
9485;SDS011;4781;48.776;9.200;2024-02-26T06:17:11;2.55;;;1.45;;
9485;SDS011;4781;48.776;9.200;2024-02-26T06:19:39;1.95;;;1.05;;
9485;SDS011;4781;48.776;9.200;2024-02-26T06:22:08;1.87;;;1.10;;
9485;SDS011;4781;48.776;9.200;2024-02-26T06:24:36;2.85;;;1.27;;
9485;SDS011;4781;48.776;9.200;2024-02-26T06:27:05;2.30;;;1.10;;
9485;SDS011;4781;48.776;9.200;2024-02-26T06:29:34;2.55;;;1.30;;
9485;SDS011;4781;48.776;9.200;2024-02-26T06:32:02;2.42;;;1.20;;
9485;SDS011;4781;48.776;9.200;2024-02-26T06:34:31;2.22;;;1.02;;
9485;SDS011;4781;48.776;9.200;2024-02-26T06:37:00;3.08;;;1.37;;
9485;SDS011;4781;48.776;9.200;2024-02-26T06:39:29;2.92;;;1.00;;
9485;SDS011;4781;48.776;9.200;2024-02-26T06:41:58;3.40;;;1.60;;
9485;SDS011;4781;48.776;9.200;2024-02-26T06:44:27;2.67;;;1.40;;
9485;SDS011;4781;48.776;9.200;2024-02-26T06:46:58;2.83;;;1.20;;
9485;SDS011;4781;48.776;9.200;2024-02-26T06:49:26;3.22;;;1.65;;
9485;SDS011;4781;48.776;9.200;2024-02-26T06:51:55;3.47;;;1.30;;
9485;SDS011;4781;48.776;9.200;2024-02-26T06:54:24;3.20;;;1.50;;
9485;SDS011;4781;48.776;9.200;2024-02-26T06:56:52;3.08;;;1.50;;
9485;SDS011;4781;48.776;9.200;2024-02-26T06:59:21;3.92;;;1.60;;
9485;SDS011;4781;48.776;9.200;2024-02-26T07:01:50;2.65;;;1.30;;
9485;SDS011;4781;48.776;9.200;2024-02-26T07:04:20;3.22;;;1.65;;
9485;SDS011;4781;48.776;9.200;2024-02-26T07:06:48;3.33;;;1.37;;
9485;SDS011;4781;48.776;9.200;2024-02-26T07:09:16;3.25;;;1.77;;
9485;SDS011;4781;48.776;9.200;2024-02-26T07:11:45;2.95;;;1.40;;
9485;SDS011;4781;48.776;9.200;2024-02-26T07:14:13;3.77;;;1.60;;
9485;SDS011;4781;48.776;9.200;2024-02-26T07:16:42;3.10;;;1.75;;
9485;SDS011;4781;48.776;9.200;2024-02-26T07:19:10;2.45;;;1.40;;
9485;SDS011;4781;48.776;9.200;2024-02-26T07:21:38;2.75;;;1.35;;
9485;SDS011;4781;48.776;9.200;2024-02-26T07:24:07;2.58;;;1.20;;
9485;SDS011;4781;48.776;9.200;2024-02-26T07:26:36;2.33;;;1.25;;
9485;SDS011;4781;48.776;9.200;2024-02-26T07:29:04;3.67;;;1.75;;
9485;SDS011;4781;48.776;9.200;2024-02-26T07:31:32;4.47;;;2.07;;
9485;SDS011;4781;48.776;9.200;2024-02-26T07:34:01;3.83;;;1.57;;
9485;SDS011;4781;48.776;9.200;2024-02-26T07:36:29;3.67;;;1.67;;
9485;SDS011;4781;48.776;9.200;2024-02-26T07:38:57;4.87;;;2.12;;
9485;SDS011;4781;48.776;9.200;2024-02-26T07:41:27;3.15;;;1.57;;
9485;SDS011;4781;48.776;9.200;2024-02-26T07:43:55;3.98;;;1.75;;
9485;SDS011;4781;48.776;9.200;2024-02-26T07:46:23;2.92;;;1.50;;
9485;SDS011;4781;48.776;9.200;2024-02-26T07:48:52;3.05;;;1.40;;
9485;SDS011;4781;48.776;9.200;2024-02-26T07:51:20;3.92;;;1.50;;
9485;SDS011;4781;48.776;9.200;2024-02-26T07:53:49;2.87;;;1.30;;
9485;SDS011;4781;48.776;9.200;2024-02-26T07:56:18;3.50;;;1.67;;
9485;SDS011;4781;48.776;9.200;2024-02-26T07:58:47;3.12;;;1.42;;
9485;SDS011;4781;48.776;9.200;2024-02-26T08:01:15;3.72;;;1.47;;
9485;SDS011;4781;48.776;9.200;2024-02-26T08:03:43;5.72;;;2.33;;
9485;SDS011;4781;48.776;9.200;2024-02-26T08:06:12;2.08;;;1.15;;
9485;SDS011;4781;48.776;9.200;2024-02-26T08:08:40;2.67;;;1.47;;
9485;SDS011;4781;48.776;9.200;2024-02-26T08:11:09;2.08;;;0.93;;
9485;SDS011;4781;48.776;9.200;2024-02-26T08:13:38;3.05;;;1.40;;
9485;SDS011;4781;48.776;9.200;2024-02-26T08:16:06;2.42;;;1.00;;
9485;SDS011;4781;48.776;9.200;2024-02-26T08:18:35;2.45;;;1.27;;
9485;SDS011;4781;48.776;9.200;2024-02-26T08:21:03;2.95;;;1.65;;
9485;SDS011;4781;48.776;9.200;2024-02-26T08:23:32;4.08;;;1.92;;
9485;SDS011;4781;48.776;9.200;2024-02-26T08:26:00;5.58;;;2.02;;
9485;SDS011;4781;48.776;9.200;2024-02-26T08:28:30;3.35;;;2.00;;
9485;SDS011;4781;48.776;9.200;2024-02-26T08:30:59;3.55;;;1.85;;
9485;SDS011;4781;48.776;9.200;2024-02-26T08:33:27;3.05;;;1.67;;
9485;SDS011;4781;48.776;9.200;2024-02-26T08:35:56;2.30;;;1.12;;
9485;SDS011;4781;48.776;9.200;2024-02-26T08:38:25;2.87;;;1.52;;
9485;SDS011;4781;48.776;9.200;2024-02-26T08:40:53;5.25;;;1.20;;
9485;SDS011;4781;48.776;9.200;2024-02-26T08:43:22;3.25;;;1.47;;
9485;SDS011;4781;48.776;9.200;2024-02-26T08:45:50;1.70;;;1.00;;
9485;SDS011;4781;48.776;9.200;2024-02-26T08:48:19;2.55;;;1.40;;
9485;SDS011;4781;48.776;9.200;2024-02-26T08:50:47;3.35;;;1.50;;
9485;SDS011;4781;48.776;9.200;2024-02-26T08:53:16;1.87;;;1.20;;
9485;SDS011;4781;48.776;9.200;2024-02-26T08:55:44;4.30;;;1.50;;
9485;SDS011;4781;48.776;9.200;2024-02-26T08:58:12;1.90;;;1.00;;
9485;SDS011;4781;48.776;9.200;2024-02-26T09:00:41;2.83;;;1.22;;
9485;SDS011;4781;48.776;9.200;2024-02-26T09:03:09;1.70;;;1.10;;
9485;SDS011;4781;48.776;9.200;2024-02-26T09:05:38;2.20;;;1.40;;
9485;SDS011;4781;48.776;9.200;2024-02-26T09:08:06;4.65;;;1.40;;
9485;SDS011;4781;48.776;9.200;2024-02-26T09:10:35;3.83;;;1.72;;
9485;SDS011;4781;48.776;9.200;2024-02-26T09:13:03;3.77;;;1.70;;
9485;SDS011;4781;48.776;9.200;2024-02-26T09:15:32;4.28;;;1.85;;
9485;SDS011;4781;48.776;9.200;2024-02-26T09:18:00;2.67;;;1.47;;
9485;SDS011;4781;48.776;9.200;2024-02-26T09:20:28;5.15;;;1.65;;
9485;SDS011;4781;48.776;9.200;2024-02-26T09:22:57;5.47;;;1.57;;
9485;SDS011;4781;48.776;9.200;2024-02-26T09:25:25;3.30;;;1.87;;
9485;SDS011;4781;48.776;9.200;2024-02-26T09:27:53;4.42;;;1.47;;
9485;SDS011;4781;48.776;9.200;2024-02-26T09:30:22;4.50;;;2.07;;
9485;SDS011;4781;48.776;9.200;2024-02-26T09:32:50;2.52;;;1.30;;
9485;SDS011;4781;48.776;9.200;2024-02-26T09:35:19;5.85;;;1.90;;
9485;SDS011;4781;48.776;9.200;2024-02-26T09:37:47;4.35;;;1.98;;
9485;SDS011;4781;48.776;9.200;2024-02-26T09:40:16;4.97;;;1.87;;
9485;SDS011;4781;48.776;9.200;2024-02-26T09:42:44;4.42;;;2.00;;
9485;SDS011;4781;48.776;9.200;2024-02-26T09:45:23;3.02;;;1.72;;
9485;SDS011;4781;48.776;9.200;2024-02-26T09:47:47;3.47;;;1.62;;
9485;SDS011;4781;48.776;9.200;2024-02-26T09:50:16;4.75;;;1.70;;
9485;SDS011;4781;48.776;9.200;2024-02-26T09:52:47;15.90;;;4.87;;
9485;SDS011;4781;48.776;9.200;2024-02-26T09:55:16;13.22;;;4.12;;
9485;SDS011;4781;48.776;9.200;2024-02-26T09:57:45;8.75;;;2.90;;
9485;SDS011;4781;48.776;9.200;2024-02-26T10:00:17;4.65;;;2.40;;
9485;SDS011;4781;48.776;9.200;2024-02-26T10:02:48;3.83;;;2.00;;
9485;SDS011;4781;48.776;9.200;2024-02-26T10:05:17;7.67;;;2.47;;
9485;SDS011;4781;48.776;9.200;2024-02-26T10:07:46;4.05;;;2.05;;
9485;SDS011;4781;48.776;9.200;2024-02-26T10:10:15;4.37;;;1.40;;
9485;SDS011;4781;48.776;9.200;2024-02-26T10:12:45;5.40;;;2.08;;
9485;SDS011;4781;48.776;9.200;2024-02-26T10:15:13;5.87;;;2.35;;
9485;SDS011;4781;48.776;9.200;2024-02-26T10:17:42;5.05;;;2.12;;
9485;SDS011;4781;48.776;9.200;2024-02-26T10:20:13;4.62;;;1.57;;
9485;SDS011;4781;48.776;9.200;2024-02-26T10:22:49;5.28;;;2.15;;
9485;SDS011;4781;48.776;9.200;2024-02-26T10:25:18;5.25;;;2.55;;
9485;SDS011;4781;48.776;9.200;2024-02-26T10:27:46;3.67;;;1.80;;
9485;SDS011;4781;48.776;9.200;2024-02-26T10:30:16;7.27;;;2.00;;
9485;SDS011;4781;48.776;9.200;2024-02-26T10:32:47;5.05;;;2.00;;
9485;SDS011;4781;48.776;9.200;2024-02-26T10:35:17;8.38;;;3.20;;
9485;SDS011;4781;48.776;9.200;2024-02-26T10:37:47;8.05;;;2.60;;
9485;SDS011;4781;48.776;9.200;2024-02-26T10:40:17;7.08;;;2.60;;
9485;SDS011;4781;48.776;9.200;2024-02-26T10:42:45;5.60;;;1.98;;
9485;SDS011;4781;48.776;9.200;2024-02-26T10:45:13;6.12;;;2.80;;
9485;SDS011;4781;48.776;9.200;2024-02-26T10:47:42;4.53;;;2.00;;
9485;SDS011;4781;48.776;9.200;2024-02-26T10:50:10;4.20;;;1.82;;
9485;SDS011;4781;48.776;9.200;2024-02-26T10:52:42;4.25;;;2.58;;
9485;SDS011;4781;48.776;9.200;2024-02-26T10:55:15;3.67;;;1.72;;
9485;SDS011;4781;48.776;9.200;2024-02-26T10:57:44;3.17;;;1.60;;
9485;SDS011;4781;48.776;9.200;2024-02-26T11:00:14;3.93;;;1.50;;
9485;SDS011;4781;48.776;9.200;2024-02-26T11:02:44;2.80;;;1.22;;
9485;SDS011;4781;48.776;9.200;2024-02-26T11:05:13;2.92;;;1.40;;
9485;SDS011;4781;48.776;9.200;2024-02-26T11:07:42;3.33;;;1.42;;
9485;SDS011;4781;48.776;9.200;2024-02-26T11:10:12;3.67;;;1.67;;
9485;SDS011;4781;48.776;9.200;2024-02-26T11:12:43;4.55;;;1.70;;
9485;SDS011;4781;48.776;9.200;2024-02-26T11:15:13;3.85;;;1.35;;
9485;SDS011;4781;48.776;9.200;2024-02-26T11:17:42;3.75;;;1.50;;
9485;SDS011;4781;48.776;9.200;2024-02-26T11:20:13;2.45;;;1.30;;
9485;SDS011;4781;48.776;9.200;2024-02-26T11:22:42;3.30;;;1.40;;
9485;SDS011;4781;48.776;9.200;2024-02-26T11:25:10;4.30;;;1.37;;
9485;SDS011;4781;48.776;9.200;2024-02-26T11:27:44;2.85;;;1.65;;
9485;SDS011;4781;48.776;9.200;2024-02-26T11:30:15;2.10;;;1.10;;
9485;SDS011;4781;48.776;9.200;2024-02-26T11:32:47;3.10;;;1.55;;
9485;SDS011;4781;48.776;9.200;2024-02-26T11:35:16;2.67;;;1.30;;
9485;SDS011;4781;48.776;9.200;2024-02-26T11:37:54;4.65;;;1.80;;
9485;SDS011;4781;48.776;9.200;2024-02-26T11:40:24;3.40;;;1.60;;
9485;SDS011;4781;48.776;9.200;2024-02-26T11:42:53;3.92;;;1.67;;
9485;SDS011;4781;48.776;9.200;2024-02-26T11:48:12;3.22;;;1.60;;
9485;SDS011;4781;48.776;9.200;2024-02-26T11:50:46;4.05;;;1.82;;
9485;SDS011;4781;48.776;9.200;2024-02-26T11:53:30;2.72;;;1.40;;
9485;SDS011;4781;48.776;9.200;2024-02-26T11:56:23;4.75;;;1.85;;
9485;SDS011;4781;48.776;9.200;2024-02-26T11:58:52;4.40;;;2.02;;
9485;SDS011;4781;48.776;9.200;2024-02-26T12:04:18;3.60;;;1.70;;
9485;SDS011;4781;48.776;9.200;2024-02-26T12:07:01;3.27;;;1.62;;
9485;SDS011;4781;48.776;9.200;2024-02-26T12:09:38;3.47;;;1.70;;
9485;SDS011;4781;48.776;9.200;2024-02-26T12:12:08;2.30;;;1.32;;
9485;SDS011;4781;48.776;9.200;2024-02-26T12:20:15;2.67;;;1.27;;
9485;SDS011;4781;48.776;9.200;2024-02-26T12:22:40;1.85;;;1.05;;
9485;SDS011;4781;48.776;9.200;2024-02-26T12:25:13;6.78;;;2.00;;
9485;SDS011;4781;48.776;9.200;2024-02-26T12:27:41;2.67;;;1.40;;
9485;SDS011;4781;48.776;9.200;2024-02-26T12:30:10;3.67;;;1.80;;
9485;SDS011;4781;48.776;9.200;2024-02-26T12:32:39;2.95;;;1.45;;
9485;SDS011;4781;48.776;9.200;2024-02-26T12:35:08;2.25;;;1.20;;
9485;SDS011;4781;48.776;9.200;2024-02-26T12:37:36;2.33;;;1.10;;
9485;SDS011;4781;48.776;9.200;2024-02-26T12:40:05;3.80;;;1.35;;
9485;SDS011;4781;48.776;9.200;2024-02-26T12:42:36;4.60;;;1.90;;
9485;SDS011;4781;48.776;9.200;2024-02-26T12:45:16;3.22;;;1.37;;
9485;SDS011;4781;48.776;9.200;2024-02-26T12:50:10;3.15;;;1.47;;
9485;SDS011;4781;48.776;9.200;2024-02-26T12:52:39;6.45;;;1.55;;
9485;SDS011;4781;48.776;9.200;2024-02-26T12:55:16;2.52;;;1.40;;
9485;SDS011;4781;48.776;9.200;2024-02-26T12:57:48;2.92;;;1.40;;
9485;SDS011;4781;48.776;9.200;2024-02-26T13:00:18;3.53;;;1.53;;
9485;SDS011;4781;48.776;9.200;2024-02-26T13:02:50;5.85;;;1.80;;
9485;SDS011;4781;48.776;9.200;2024-02-26T13:05:21;7.10;;;1.60;;
9485;SDS011;4781;48.776;9.200;2024-02-26T13:07:51;2.98;;;1.52;;
9485;SDS011;4781;48.776;9.200;2024-02-26T13:10:19;3.30;;;1.40;;
9485;SDS011;4781;48.776;9.200;2024-02-26T13:12:48;2.45;;;1.15;;
9485;SDS011;4781;48.776;9.200;2024-02-26T13:15:17;2.85;;;1.20;;
9485;SDS011;4781;48.776;9.200;2024-02-26T13:17:48;4.62;;;1.90;;
9485;SDS011;4781;48.776;9.200;2024-02-26T13:20:30;4.53;;;1.27;;
9485;SDS011;4781;48.776;9.200;2024-02-26T13:23:02;3.40;;;1.60;;
9485;SDS011;4781;48.776;9.200;2024-02-26T13:25:33;2.08;;;1.10;;
9485;SDS011;4781;48.776;9.200;2024-02-26T13:30:51;1.57;;;0.95;;
9485;SDS011;4781;48.776;9.200;2024-02-26T13:33:26;1.60;;;0.90;;
9485;SDS011;4781;48.776;9.200;2024-02-26T13:35:56;2.87;;;1.00;;
9485;SDS011;4781;48.776;9.200;2024-02-26T13:38:26;2.83;;;0.93;;
9485;SDS011;4781;48.776;9.200;2024-02-26T13:40:55;0.95;;;0.60;;
9485;SDS011;4781;48.776;9.200;2024-02-26T13:43:24;1.65;;;0.80;;
9485;SDS011;4781;48.776;9.200;2024-02-26T13:45:52;2.62;;;1.07;;
9485;SDS011;4781;48.776;9.200;2024-02-26T13:48:20;3.33;;;1.25;;
9485;SDS011;4781;48.776;9.200;2024-02-26T13:50:49;0.85;;;0.62;;
9485;SDS011;4781;48.776;9.200;2024-02-26T13:53:17;1.90;;;0.93;;
9485;SDS011;4781;48.776;9.200;2024-02-26T13:55:46;4.30;;;0.90;;
9485;SDS011;4781;48.776;9.200;2024-02-26T13:58:14;1.60;;;0.80;;
9485;SDS011;4781;48.776;9.200;2024-02-26T14:00:44;1.05;;;0.62;;
9485;SDS011;4781;48.776;9.200;2024-02-26T14:03:13;1.80;;;0.90;;
9485;SDS011;4781;48.776;9.200;2024-02-26T14:05:42;1.15;;;0.60;;
9485;SDS011;4781;48.776;9.200;2024-02-26T14:08:10;1.37;;;0.60;;
9485;SDS011;4781;48.776;9.200;2024-02-26T14:10:38;1.85;;;0.98;;
9485;SDS011;4781;48.776;9.200;2024-02-26T14:13:07;0.98;;;0.60;;
9485;SDS011;4781;48.776;9.200;2024-02-26T14:15:35;0.50;;;0.42;;
9485;SDS011;4781;48.776;9.200;2024-02-26T14:18:05;1.20;;;0.55;;
9485;SDS011;4781;48.776;9.200;2024-02-26T14:20:34;1.17;;;0.60;;
9485;SDS011;4781;48.776;9.200;2024-02-26T14:23:02;1.02;;;0.60;;
9485;SDS011;4781;48.776;9.200;2024-02-26T14:25:31;1.12;;;0.50;;
9485;SDS011;4781;48.776;9.200;2024-02-26T14:27:59;0.75;;;0.40;;
9485;SDS011;4781;48.776;9.200;2024-02-26T14:30:28;0.82;;;0.50;;
9485;SDS011;4781;48.776;9.200;2024-02-26T14:32:56;1.05;;;0.70;;
9485;SDS011;4781;48.776;9.200;2024-02-26T14:35:25;0.82;;;0.50;;
9485;SDS011;4781;48.776;9.200;2024-02-26T14:37:53;1.95;;;0.57;;
9485;SDS011;4781;48.776;9.200;2024-02-26T14:40:23;0.75;;;0.50;;
9485;SDS011;4781;48.776;9.200;2024-02-26T14:42:51;1.12;;;0.72;;
9485;SDS011;4781;48.776;9.200;2024-02-26T14:45:20;0.95;;;0.70;;
9485;SDS011;4781;48.776;9.200;2024-02-26T14:47:48;1.07;;;0.80;;
9485;SDS011;4781;48.776;9.200;2024-02-26T14:50:17;0.68;;;0.42;;
9485;SDS011;4781;48.776;9.200;2024-02-26T14:52:45;1.20;;;0.60;;
9485;SDS011;4781;48.776;9.200;2024-02-26T14:55:13;1.32;;;0.70;;
9485;SDS011;4781;48.776;9.200;2024-02-26T14:57:42;2.10;;;0.70;;
9485;SDS011;4781;48.776;9.200;2024-02-26T15:00:10;2.17;;;0.82;;
9485;SDS011;4781;48.776;9.200;2024-02-26T15:02:39;2.55;;;0.95;;
9485;SDS011;4781;48.776;9.200;2024-02-26T15:05:07;1.32;;;0.70;;
9485;SDS011;4781;48.776;9.200;2024-02-26T15:07:37;1.90;;;0.85;;
9485;SDS011;4781;48.776;9.200;2024-02-26T15:10:06;1.90;;;0.93;;
9485;SDS011;4781;48.776;9.200;2024-02-26T15:12:35;1.55;;;0.78;;
9485;SDS011;4781;48.776;9.200;2024-02-26T15:15:03;2.52;;;0.90;;
9485;SDS011;4781;48.776;9.200;2024-02-26T15:17:32;1.57;;;0.90;;
9485;SDS011;4781;48.776;9.200;2024-02-26T15:20:02;2.80;;;1.02;;
9485;SDS011;4781;48.776;9.200;2024-02-26T15:22:33;1.50;;;0.98;;
9485;SDS011;4781;48.776;9.200;2024-02-26T15:25:01;1.42;;;0.80;;
9485;SDS011;4781;48.776;9.200;2024-02-26T15:27:30;1.62;;;0.80;;
9485;SDS011;4781;48.776;9.200;2024-02-26T15:29:58;1.22;;;0.70;;
9485;SDS011;4781;48.776;9.200;2024-02-26T15:32:27;1.65;;;0.80;;
9485;SDS011;4781;48.776;9.200;2024-02-26T15:34:56;1.42;;;0.70;;
9485;SDS011;4781;48.776;9.200;2024-02-26T15:37:24;1.85;;;1.00;;
9485;SDS011;4781;48.776;9.200;2024-02-26T15:39:52;1.77;;;0.90;;
9485;SDS011;4781;48.776;9.200;2024-02-26T15:42:22;2.85;;;1.20;;